sensor_id;sensor_type;location;lat;lon;timestamp;P1;durP1;ratioP1;P2;durP2;ratioP2
28946;SDS011;16052;50.930;5.326;2023-03-01T00:02:05;0.10;;;0.10;;
28946;SDS011;16052;50.930;5.326;2023-03-01T00:04:31;0.20;;;0.20;;
28946;SDS011;16052;50.930;5.326;2023-03-01T00:06:57;0.20;;;0.20;;
28946;SDS011;16052;50.930;5.326;2023-03-01T00:09:22;0.20;;;0.20;;
28946;SDS011;16052;50.930;5.326;2023-03-01T00:11:48;0.30;;;0.30;;
28946;SDS011;16052;50.930;5.326;2023-03-01T00:14:15;0.20;;;0.20;;
28946;SDS011;16052;50.930;5.326;2023-03-01T00:16:44;0.22;;;0.22;;
28946;SDS011;16052;50.930;5.326;2023-03-01T00:19:14;0.20;;;0.20;;
28946;SDS011;16052;50.930;5.326;2023-03-01T00:21:42;0.22;;;0.22;;
28946;SDS011;16052;50.930;5.326;2023-03-01T00:24:08;0.20;;;0.20;;
28946;SDS011;16052;50.930;5.326;2023-03-01T00:26:35;0.20;;;0.20;;
28946;SDS011;16052;50.930;5.326;2023-03-01T00:29:01;0.20;;;0.20;;
28946;SDS011;16052;50.930;5.326;2023-03-01T00:31:27;0.30;;;0.30;;
28946;SDS011;16052;50.930;5.326;2023-03-01T00:33:55;0.20;;;0.20;;
28946;SDS011;16052;50.930;5.326;2023-03-01T00:36:24;0.20;;;0.20;;
28946;SDS011;16052;50.930;5.326;2023-03-01T00:38:52;0.20;;;0.20;;
28946;SDS011;16052;50.930;5.326;2023-03-01T00:41:18;0.20;;;0.20;;
28946;SDS011;16052;50.930;5.326;2023-03-01T00:43:45;0.20;;;0.20;;
28946;SDS011;16052;50.930;5.326;2023-03-01T00:46:11;0.20;;;0.20;;
28946;SDS011;16052;50.930;5.326;2023-03-01T00:48:39;0.20;;;0.20;;
28946;SDS011;16052;50.930;5.326;2023-03-01T00:53:37;0.20;;;0.20;;
28946;SDS011;16052;50.930;5.326;2023-03-01T00:56:04;0.20;;;0.20;;
28946;SDS011;16052;50.930;5.326;2023-03-01T00:58:31;0.20;;;0.20;;
28946;SDS011;16052;50.930;5.326;2023-03-01T01:00:57;0.20;;;0.20;;
28946;SDS011;16052;50.930;5.326;2023-03-01T01:03:23;0.20;;;0.20;;
28946;SDS011;16052;50.930;5.326;2023-03-01T01:05:50;0.20;;;0.20;;
28946;SDS011;16052;50.930;5.326;2023-03-01T01:08:16;0.20;;;0.20;;
28946;SDS011;16052;50.930;5.326;2023-03-01T01:10:43;0.17;;;0.17;;
28946;SDS011;16052;50.930;5.326;2023-03-01T01:13:09;0.25;;;0.25;;
28946;SDS011;16052;50.930;5.326;2023-03-01T01:15:35;0.20;;;0.20;;
28946;SDS011;16052;50.930;5.326;2023-03-01T01:18:01;0.20;;;0.20;;
28946;SDS011;16052;50.930;5.326;2023-03-01T01:20:28;0.22;;;0.22;;
28946;SDS011;16052;50.930;5.326;2023-03-01T01:22:53;0.20;;;0.20;;
28946;SDS011;16052;50.930;5.326;2023-03-01T01:25:19;0.20;;;0.20;;
28946;SDS011;16052;50.930;5.326;2023-03-01T01:27:45;0.30;;;0.30;;
28946;SDS011;16052;50.930;5.326;2023-03-01T01:30:12;0.20;;;0.20;;
28946;SDS011;16052;50.930;5.326;2023-03-01T01:32:38;0.20;;;0.20;;
28946;SDS011;16052;50.930;5.326;2023-03-01T01:35:04;0.20;;;0.20;;
28946;SDS011;16052;50.930;5.326;2023-03-01T01:37:31;0.20;;;0.20;;
28946;SDS011;16052;50.930;5.326;2023-03-01T01:39:57;0.20;;;0.20;;
28946;SDS011;16052;50.930;5.326;2023-03-01T01:42:24;0.20;;;0.20;;
28946;SDS011;16052;50.930;5.326;2023-03-01T01:45:21;0.15;;;0.15;;
28946;SDS011;16052;50.930;5.326;2023-03-01T01:47:54;0.20;;;0.20;;
28946;SDS011;16052;50.930;5.326;2023-03-01T01:52:49;0.22;;;0.22;;
28946;SDS011;16052;50.930;5.326;2023-03-01T01:55:17;0.20;;;0.20;;
28946;SDS011;16052;50.930;5.326;2023-03-01T01:57:59;0.20;;;0.20;;
28946;SDS011;16052;50.930;5.326;2023-03-01T02:00:29;0.30;;;0.30;;
28946;SDS011;16052;50.930;5.326;2023-03-01T02:02:56;0.20;;;0.20;;
28946;SDS011;16052;50.930;5.326;2023-03-01T02:05:34;0.20;;;0.20;;
28946;SDS011;16052;50.930;5.326;2023-03-01T02:08:36;0.30;;;0.30;;
28946;SDS011;16052;50.930;5.326;2023-03-01T02:11:06;0.20;;;0.20;;
28946;SDS011;16052;50.930;5.326;2023-03-01T02:13:33;0.28;;;0.28;;
28946;SDS011;16052;50.930;5.326;2023-03-01T02:16:02;0.20;;;0.20;;
28946;SDS011;16052;50.930;5.326;2023-03-01T02:18:29;0.28;;;0.28;;
28946;SDS011;16052;50.930;5.326;2023-03-01T02:21:04;0.20;;;0.20;;
28946;SDS011;16052;50.930;5.326;2023-03-01T02:23:52;0.25;;;0.25;;
28946;SDS011;16052;50.930;5.326;2023-03-01T02:26:21;0.20;;;0.20;;
28946;SDS011;16052;50.930;5.326;2023-03-01T02:28:51;0.20;;;0.20;;
28946;SDS011;16052;50.930;5.326;2023-03-01T02:31:19;0.20;;;0.20;;
28946;SDS011;16052;50.930;5.326;2023-03-01T02:34:04;0.20;;;0.20;;
28946;SDS011;16052;50.930;5.326;2023-03-01T02:36:35;0.30;;;0.30;;
28946;SDS011;16052;50.930;5.326;2023-03-01T02:39:36;0.20;;;0.20;;
28946;SDS011;16052;50.930;5.326;2023-03-01T02:42:10;0.20;;;0.20;;
28946;SDS011;16052;50.930;5.326;2023-03-01T02:44:37;0.28;;;0.28;;
28946;SDS011;16052;50.930;5.326;2023-03-01T02:47:03;0.22;;;0.22;;
28946;SDS011;16052;50.930;5.326;2023-03-01T02:49:32;0.20;;;0.20;;
28946;SDS011;16052;50.930;5.326;2023-03-01T02:57:27;0.20;;;0.20;;
28946;SDS011;16052;50.930;5.326;2023-03-01T02:59:55;0.20;;;0.20;;
28946;SDS011;16052;50.930;5.326;2023-03-01T03:02:29;0.20;;;0.20;;
28946;SDS011;16052;50.930;5.326;2023-03-01T03:05:05;0.30;;;0.30;;
28946;SDS011;16052;50.930;5.326;2023-03-01T03:07:46;0.20;;;0.20;;
28946;SDS011;16052;50.930;5.326;2023-03-01T03:10:16;0.20;;;0.20;;
28946;SDS011;16052;50.930;5.326;2023-03-01T03:12:55;0.20;;;0.20;;
28946;SDS011;16052;50.930;5.326;2023-03-01T03:15:23;0.20;;;0.20;;
28946;SDS011;16052;50.930;5.326;2023-03-01T03:17:50;0.20;;;0.20;;
28946;SDS011;16052;50.930;5.326;2023-03-01T03:20:18;0.20;;;0.20;;
28946;SDS011;16052;50.930;5.326;2023-03-01T03:22:49;0.30;;;0.30;;
28946;SDS011;16052;50.930;5.326;2023-03-01T03:25:17;0.22;;;0.22;;
28946;SDS011;16052;50.930;5.326;2023-03-01T03:27:44;0.20;;;0.20;;
28946;SDS011;16052;50.930;5.326;2023-03-01T03:30:13;0.30;;;0.30;;
28946;SDS011;16052;50.930;5.326;2023-03-01T03:32:41;0.30;;;0.30;;
28946;SDS011;16052;50.930;5.326;2023-03-01T03:35:17;0.30;;;0.30;;
28946;SDS011;16052;50.930;5.326;2023-03-01T03:37:49;0.22;;;0.22;;
28946;SDS011;16052;50.930;5.326;2023-03-01T03:40:28;0.30;;;0.30;;
28946;SDS011;16052;50.930;5.326;2023-03-01T03:42:56;0.22;;;0.22;;
28946;SDS011;16052;50.930;5.326;2023-03-01T03:45:23;0.28;;;0.28;;
28946;SDS011;16052;50.930;5.326;2023-03-01T03:47:49;0.40;;;0.40;;
28946;SDS011;16052;50.930;5.326;2023-03-01T03:50:15;0.20;;;0.20;;
28946;SDS011;16052;50.930;5.326;2023-03-01T03:52:42;0.20;;;0.20;;
28946;SDS011;16052;50.930;5.326;2023-03-01T03:55:09;0.20;;;0.20;;
28946;SDS011;16052;50.930;5.326;2023-03-01T03:57:36;0.30;;;0.30;;
28946;SDS011;16052;50.930;5.326;2023-03-01T04:00:06;0.30;;;0.30;;
28946;SDS011;16052;50.930;5.326;2023-03-01T04:02:41;0.30;;;0.30;;
28946;SDS011;16052;50.930;5.326;2023-03-01T04:05:08;0.20;;;0.20;;
28946;SDS011;16052;50.930;5.326;2023-03-01T04:07:36;0.20;;;0.20;;
28946;SDS011;16052;50.930;5.326;2023-03-01T04:10:03;0.30;;;0.30;;
28946;SDS011;16052;50.930;5.326;2023-03-01T04:12:30;0.30;;;0.30;;
28946;SDS011;16052;50.930;5.326;2023-03-01T04:14:55;0.20;;;0.20;;
28946;SDS011;16052;50.930;5.326;2023-03-01T04:17:21;0.40;;;0.40;;
28946;SDS011;16052;50.930;5.326;2023-03-01T04:19:47;0.20;;;0.20;;
28946;SDS011;16052;50.930;5.326;2023-03-01T04:22:14;0.20;;;0.20;;
28946;SDS011;16052;50.930;5.326;2023-03-01T04:24:42;0.20;;;0.20;;
28946;SDS011;16052;50.930;5.326;2023-03-01T04:27:08;0.20;;;0.20;;
28946;SDS011;16052;50.930;5.326;2023-03-01T04:29:34;0.22;;;0.22;;
28946;SDS011;16052;50.930;5.326;2023-03-01T04:31:59;0.30;;;0.30;;
28946;SDS011;16052;50.930;5.326;2023-03-01T04:34:25;0.35;;;0.35;;
28946;SDS011;16052;50.930;5.326;2023-03-01T04:36:54;0.20;;;0.20;;
28946;SDS011;16052;50.930;5.326;2023-03-01T04:39:20;0.20;;;0.20;;
28946;SDS011;16052;50.930;5.326;2023-03-01T04:41:45;0.20;;;0.20;;
28946;SDS011;16052;50.930;5.326;2023-03-01T04:44:11;0.10;;;0.10;;
28946;SDS011;16052;50.930;5.326;2023-03-01T04:46:37;0.22;;;0.22;;
28946;SDS011;16052;50.930;5.326;2023-03-01T04:49:03;0.30;;;0.30;;
28946;SDS011;16052;50.930;5.326;2023-03-01T04:51:30;0.20;;;0.20;;
28946;SDS011;16052;50.930;5.326;2023-03-01T04:53:58;0.28;;;0.28;;
28946;SDS011;16052;50.930;5.326;2023-03-01T04:56:25;0.30;;;0.30;;
28946;SDS011;16052;50.930;5.326;2023-03-01T04:58:52;0.20;;;0.20;;
28946;SDS011;16052;50.930;5.326;2023-03-01T05:01:19;0.20;;;0.20;;
28946;SDS011;16052;50.930;5.326;2023-03-01T05:03:46;0.30;;;0.30;;
28946;SDS011;16052;50.930;5.326;2023-03-01T05:06:14;0.20;;;0.20;;
28946;SDS011;16052;50.930;5.326;2023-03-01T05:08:40;0.20;;;0.20;;
28946;SDS011;16052;50.930;5.326;2023-03-01T05:11:07;0.20;;;0.20;;
28946;SDS011;16052;50.930;5.326;2023-03-01T05:13:34;0.30;;;0.30;;
28946;SDS011;16052;50.930;5.326;2023-03-01T05:16:02;0.28;;;0.28;;
28946;SDS011;16052;50.930;5.326;2023-03-01T05:18:29;0.30;;;0.30;;
28946;SDS011;16052;50.930;5.326;2023-03-01T05:21:01;0.20;;;0.20;;
28946;SDS011;16052;50.930;5.326;2023-03-01T05:23:32;0.30;;;0.30;;
28946;SDS011;16052;50.930;5.326;2023-03-01T05:25:59;0.30;;;0.30;;
28946;SDS011;16052;50.930;5.326;2023-03-01T05:28:29;0.20;;;0.20;;
28946;SDS011;16052;50.930;5.326;2023-03-01T05:30:55;0.20;;;0.20;;
28946;SDS011;16052;50.930;5.326;2023-03-01T05:33:21;0.20;;;0.20;;
28946;SDS011;16052;50.930;5.326;2023-03-01T05:35:47;0.25;;;0.25;;
28946;SDS011;16052;50.930;5.326;2023-03-01T05:38:14;0.30;;;0.30;;
28946;SDS011;16052;50.930;5.326;2023-03-01T05:40:41;0.40;;;0.40;;
28946;SDS011;16052;50.930;5.326;2023-03-01T05:43:08;0.30;;;0.30;;
28946;SDS011;16052;50.930;5.326;2023-03-01T05:45:36;0.30;;;0.30;;
28946;SDS011;16052;50.930;5.326;2023-03-01T05:48:03;0.30;;;0.30;;
28946;SDS011;16052;50.930;5.326;2023-03-01T05:50:32;0.30;;;0.30;;
28946;SDS011;16052;50.930;5.326;2023-03-01T05:53:03;0.30;;;0.30;;
28946;SDS011;16052;50.930;5.326;2023-03-01T05:55:31;0.25;;;0.25;;
28946;SDS011;16052;50.930;5.326;2023-03-01T05:58:04;0.30;;;0.30;;
28946;SDS011;16052;50.930;5.326;2023-03-01T06:00:31;0.20;;;0.20;;
28946;SDS011;16052;50.930;5.326;2023-03-01T06:02:57;0.28;;;0.28;;
28946;SDS011;16052;50.930;5.326;2023-03-01T06:05:24;0.22;;;0.22;;
28946;SDS011;16052;50.930;5.326;2023-03-01T06:07:50;0.30;;;0.30;;
28946;SDS011;16052;50.930;5.326;2023-03-01T06:10:17;0.30;;;0.30;;
28946;SDS011;16052;50.930;5.326;2023-03-01T06:12:43;0.30;;;0.30;;
28946;SDS011;16052;50.930;5.326;2023-03-01T06:15:10;0.30;;;0.30;;
28946;SDS011;16052;50.930;5.326;2023-03-01T06:17:38;0.22;;;0.22;;
28946;SDS011;16052;50.930;5.326;2023-03-01T06:20:06;0.30;;;0.30;;
28946;SDS011;16052;50.930;5.326;2023-03-01T06:22:34;0.20;;;0.20;;
28946;SDS011;16052;50.930;5.326;2023-03-01T06:25:00;0.30;;;0.30;;
28946;SDS011;16052;50.930;5.326;2023-03-01T06:27:26;0.20;;;0.20;;
28946;SDS011;16052;50.930;5.326;2023-03-01T06:29:51;0.30;;;0.30;;
28946;SDS011;16052;50.930;5.326;2023-03-01T06:32:17;0.22;;;0.22;;
28946;SDS011;16052;50.930;5.326;2023-03-01T06:34:43;0.30;;;0.30;;
28946;SDS011;16052;50.930;5.326;2023-03-01T06:37:09;0.30;;;0.30;;
28946;SDS011;16052;50.930;5.326;2023-03-01T06:39:35;0.30;;;0.30;;
28946;SDS011;16052;50.930;5.326;2023-03-01T06:42:00;0.30;;;0.30;;
28946;SDS011;16052;50.930;5.326;2023-03-01T06:44:26;0.40;;;0.40;;
28946;SDS011;16052;50.930;5.326;2023-03-01T06:46:52;0.30;;;0.30;;
28946;SDS011;16052;50.930;5.326;2023-03-01T06:49:18;0.30;;;0.30;;
28946;SDS011;16052;50.930;5.326;2023-03-01T06:51:44;0.20;;;0.20;;
28946;SDS011;16052;50.930;5.326;2023-03-01T06:54:11;0.30;;;0.30;;
28946;SDS011;16052;50.930;5.326;2023-03-01T06:56:36;0.20;;;0.20;;
28946;SDS011;16052;50.930;5.326;2023-03-01T06:59:02;0.20;;;0.20;;
28946;SDS011;16052;50.930;5.326;2023-03-01T07:01:28;0.30;;;0.30;;
28946;SDS011;16052;50.930;5.326;2023-03-01T07:03:55;0.20;;;0.20;;
28946;SDS011;16052;50.930;5.326;2023-03-01T07:06:21;0.30;;;0.30;;
28946;SDS011;16052;50.930;5.326;2023-03-01T07:08:46;0.20;;;0.20;;
28946;SDS011;16052;50.930;5.326;2023-03-01T07:11:12;0.20;;;0.20;;
28946;SDS011;16052;50.930;5.326;2023-03-01T07:13:38;0.30;;;0.30;;
28946;SDS011;16052;50.930;5.326;2023-03-01T07:16:04;0.22;;;0.22;;
28946;SDS011;16052;50.930;5.326;2023-03-01T07:18:30;0.30;;;0.30;;
28946;SDS011;16052;50.930;5.326;2023-03-01T07:20:55;0.30;;;0.30;;
28946;SDS011;16052;50.930;5.326;2023-03-01T07:23:21;0.20;;;0.20;;
28946;SDS011;16052;50.930;5.326;2023-03-01T07:25:53;0.20;;;0.20;;
28946;SDS011;16052;50.930;5.326;2023-03-01T07:28:19;0.25;;;0.25;;
28946;SDS011;16052;50.930;5.326;2023-03-01T07:30:45;0.30;;;0.30;;
28946;SDS011;16052;50.930;5.326;2023-03-01T07:33:11;0.30;;;0.30;;
28946;SDS011;16052;50.930;5.326;2023-03-01T07:35:37;0.22;;;0.22;;
28946;SDS011;16052;50.930;5.326;2023-03-01T07:38:02;0.20;;;0.20;;
28946;SDS011;16052;50.930;5.326;2023-03-01T07:40:28;0.30;;;0.30;;
28946;SDS011;16052;50.930;5.326;2023-03-01T07:42:57;0.30;;;0.30;;
28946;SDS011;16052;50.930;5.326;2023-03-01T07:45:23;0.20;;;0.20;;
28946;SDS011;16052;50.930;5.326;2023-03-01T07:47:53;0.20;;;0.20;;
28946;SDS011;16052;50.930;5.326;2023-03-01T07:50:21;0.30;;;0.30;;
28946;SDS011;16052;50.930;5.326;2023-03-01T07:52:48;0.20;;;0.20;;
28946;SDS011;16052;50.930;5.326;2023-03-01T07:55:15;0.28;;;0.28;;
28946;SDS011;16052;50.930;5.326;2023-03-01T07:57:41;0.20;;;0.20;;
28946;SDS011;16052;50.930;5.326;2023-03-01T08:00:07;0.30;;;0.30;;
28946;SDS011;16052;50.930;5.326;2023-03-01T08:02:35;0.25;;;0.25;;
28946;SDS011;16052;50.930;5.326;2023-03-01T08:05:01;0.30;;;0.30;;
28946;SDS011;16052;50.930;5.326;2023-03-01T08:07:26;0.30;;;0.30;;
28946;SDS011;16052;50.930;5.326;2023-03-01T08:09:52;0.30;;;0.30;;
28946;SDS011;16052;50.930;5.326;2023-03-01T08:12:18;0.20;;;0.20;;
28946;SDS011;16052;50.930;5.326;2023-03-01T08:14:45;0.20;;;0.20;;
28946;SDS011;16052;50.930;5.326;2023-03-01T08:17:13;0.20;;;0.20;;
28946;SDS011;16052;50.930;5.326;2023-03-01T08:19:39;0.20;;;0.20;;
28946;SDS011;16052;50.930;5.326;2023-03-01T08:22:05;0.20;;;0.20;;
28946;SDS011;16052;50.930;5.326;2023-03-01T08:24:32;0.20;;;0.20;;
28946;SDS011;16052;50.930;5.326;2023-03-01T08:27:03;0.20;;;0.20;;
28946;SDS011;16052;50.930;5.326;2023-03-01T08:29:35;0.20;;;0.20;;
28946;SDS011;16052;50.930;5.326;2023-03-01T08:32:01;0.20;;;0.20;;
28946;SDS011;16052;50.930;5.326;2023-03-01T08:34:27;0.20;;;0.20;;
28946;SDS011;16052;50.930;5.326;2023-03-01T08:36:56;0.25;;;0.25;;
28946;SDS011;16052;50.930;5.326;2023-03-01T08:39:23;0.20;;;0.20;;
28946;SDS011;16052;50.930;5.326;2023-03-01T08:41:49;0.25;;;0.25;;
28946;SDS011;16052;50.930;5.326;2023-03-01T08:44:15;0.20;;;0.20;;
28946;SDS011;16052;50.930;5.326;2023-03-01T08:46:47;0.22;;;0.22;;
28946;SDS011;16052;50.930;5.326;2023-03-01T08:49:16;0.20;;;0.20;;
28946;SDS011;16052;50.930;5.326;2023-03-01T08:51:44;0.20;;;0.20;;
28946;SDS011;16052;50.930;5.326;2023-03-01T08:54:13;0.20;;;0.20;;
28946;SDS011;16052;50.930;5.326;2023-03-01T08:56:44;0.20;;;0.20;;
28946;SDS011;16052;50.930;5.326;2023-03-01T08:59:11;0.20;;;0.20;;
28946;SDS011;16052;50.930;5.326;2023-03-01T09:01:37;0.20;;;0.20;;
28946;SDS011;16052;50.930;5.326;2023-03-01T09:04:03;0.20;;;0.20;;
28946;SDS011;16052;50.930;5.326;2023-03-01T09:06:32;0.20;;;0.20;;
28946;SDS011;16052;50.930;5.326;2023-03-01T09:08:58;0.20;;;0.20;;
28946;SDS011;16052;50.930;5.326;2023-03-01T09:11:24;0.20;;;0.20;;
28946;SDS011;16052;50.930;5.326;2023-03-01T09:13:50;0.20;;;0.20;;
28946;SDS011;16052;50.930;5.326;2023-03-01T09:16:18;0.17;;;0.17;;
28946;SDS011;16052;50.930;5.326;2023-03-01T09:18:45;0.20;;;0.20;;
28946;SDS011;16052;50.930;5.326;2023-03-01T09:21:18;0.10;;;0.10;;
28946;SDS011;16052;50.930;5.326;2023-03-01T09:23:46;0.10;;;0.10;;
28946;SDS011;16052;50.930;5.326;2023-03-01T09:26:18;0.20;;;0.20;;
28946;SDS011;16052;50.930;5.326;2023-03-01T09:28:47;0.20;;;0.20;;
28946;SDS011;16052;50.930;5.326;2023-03-01T09:31:15;0.20;;;0.20;;
28946;SDS011;16052;50.930;5.326;2023-03-01T09:33:42;0.20;;;0.20;;
28946;SDS011;16052;50.930;5.326;2023-03-01T09:36:11;0.10;;;0.10;;
28946;SDS011;16052;50.930;5.326;2023-03-01T09:38:38;0.20;;;0.20;;
28946;SDS011;16052;50.930;5.326;2023-03-01T09:43:52;0.17;;;0.17;;
28946;SDS011;16052;50.930;5.326;2023-03-01T09:46:24;0.20;;;0.20;;
28946;SDS011;16052;50.930;5.326;2023-03-01T09:48:55;0.10;;;0.10;;
28946;SDS011;16052;50.930;5.326;2023-03-01T09:51:31;0.10;;;0.10;;
28946;SDS011;16052;50.930;5.326;2023-03-01T09:53:58;0.10;;;0.10;;
28946;SDS011;16052;50.930;5.326;2023-03-01T09:56:33;0.20;;;0.20;;
28946;SDS011;16052;50.930;5.326;2023-03-01T10:09:38;0.13;;;0.13;;
28946;SDS011;16052;50.930;5.326;2023-03-01T10:12:13;0.10;;;0.10;;
28946;SDS011;16052;50.930;5.326;2023-03-01T10:19:55;0.20;;;0.20;;
28946;SDS011;16052;50.930;5.326;2023-03-01T10:22:39;0.13;;;0.13;;
28946;SDS011;16052;50.930;5.326;2023-03-01T10:25:05;0.10;;;0.10;;
28946;SDS011;16052;50.930;5.326;2023-03-01T10:27:37;0.20;;;0.20;;
28946;SDS011;16052;50.930;5.326;2023-03-01T10:30:14;0.20;;;0.20;;
28946;SDS011;16052;50.930;5.326;2023-03-01T10:32:45;0.20;;;0.20;;
28946;SDS011;16052;50.930;5.326;2023-03-01T10:35:24;0.10;;;0.10;;
28946;SDS011;16052;50.930;5.326;2023-03-01T10:43:14;0.10;;;0.10;;
28946;SDS011;16052;50.930;5.326;2023-03-01T10:45:40;0.20;;;0.20;;
28946;SDS011;16052;50.930;5.326;2023-03-01T10:50:47;0.10;;;0.10;;
28946;SDS011;16052;50.930;5.326;2023-03-01T10:53:25;0.13;;;0.13;;
28946;SDS011;16052;50.930;5.326;2023-03-01T10:58:32;0.20;;;0.20;;
28946;SDS011;16052;50.930;5.326;2023-03-01T11:01:01;0.10;;;0.10;;
28946;SDS011;16052;50.930;5.326;2023-03-01T11:03:30;0.10;;;0.10;;
28946;SDS011;16052;50.930;5.326;2023-03-01T11:08:45;0.10;;;0.10;;
28946;SDS011;16052;50.930;5.326;2023-03-01T11:18:58;0.10;;;0.10;;
28946;SDS011;16052;50.930;5.326;2023-03-01T11:21:38;0.10;;;0.10;;
28946;SDS011;16052;50.930;5.326;2023-03-01T11:24:14;0.10;;;0.10;;
28946;SDS011;16052;50.930;5.326;2023-03-01T11:26:44;0.10;;;0.10;;
28946;SDS011;16052;50.930;5.326;2023-03-01T11:32:06;0.10;;;0.10;;
28946;SDS011;16052;50.930;5.326;2023-03-01T11:51:14;0.10;;;0.10;;
28946;SDS011;16052;50.930;5.326;2023-03-01T11:56:41;0.20;;;0.20;;
28946;SDS011;16052;50.930;5.326;2023-03-01T12:12:58;0.10;;;0.10;;
28946;SDS011;16052;50.930;5.326;2023-03-01T12:15:47;0.10;;;0.10;;
28946;SDS011;16052;50.930;5.326;2023-03-01T12:24:14;0.10;;;0.10;;
28946;SDS011;16052;50.930;5.326;2023-03-01T12:32:13;0.10;;;0.10;;
28946;SDS011;16052;50.930;5.326;2023-03-01T12:37:25;0.10;;;0.10;;
28946;SDS011;16052;50.930;5.326;2023-03-01T12:49:10;0.10;;;0.10;;
28946;SDS011;16052;50.930;5.326;2023-03-01T12:51:39;0.10;;;0.10;;
28946;SDS011;16052;50.930;5.326;2023-03-01T12:54:16;0.10;;;0.10;;
28946;SDS011;16052;50.930;5.326;2023-03-01T12:56:50;0.10;;;0.10;;
28946;SDS011;16052;50.930;5.326;2023-03-01T12:59:26;0.10;;;0.10;;
28946;SDS011;16052;50.930;5.326;2023-03-01T13:02:25;0.10;;;0.10;;
28946;SDS011;16052;50.930;5.326;2023-03-01T13:15:36;0.10;;;0.10;;
28946;SDS011;16052;50.930;5.326;2023-03-01T13:31:02;0.10;;;0.10;;
28946;SDS011;16052;50.930;5.326;2023-03-01T13:35:56;0.10;;;0.10;;
28946;SDS011;16052;50.930;5.326;2023-03-01T13:39:25;0.10;;;0.10;;
28946;SDS011;16052;50.930;5.326;2023-03-01T13:46:48;0.10;;;0.10;;
28946;SDS011;16052;50.930;5.326;2023-03-01T13:49:16;0.10;;;0.10;;
28946;SDS011;16052;50.930;5.326;2023-03-01T13:51:48;0.20;;;0.20;;
28946;SDS011;16052;50.930;5.326;2023-03-01T13:54:16;0.13;;;0.13;;
28946;SDS011;16052;50.930;5.326;2023-03-01T13:56:47;0.10;;;0.10;;
28946;SDS011;16052;50.930;5.326;2023-03-01T13:59:14;0.10;;;0.10;;
28946;SDS011;16052;50.930;5.326;2023-03-01T14:01:42;0.10;;;0.10;;
28946;SDS011;16052;50.930;5.326;2023-03-01T14:04:21;0.10;;;0.10;;
28946;SDS011;16052;50.930;5.326;2023-03-01T14:06:48;0.10;;;0.10;;
28946;SDS011;16052;50.930;5.326;2023-03-01T14:09:23;0.10;;;0.10;;
28946;SDS011;16052;50.930;5.326;2023-03-01T14:14:56;0.10;;;0.10;;
28946;SDS011;16052;50.930;5.326;2023-03-01T14:20:00;0.10;;;0.10;;
28946;SDS011;16052;50.930;5.326;2023-03-01T14:22:34;0.10;;;0.10;;
28946;SDS011;16052;50.930;5.326;2023-03-01T14:25:24;0.10;;;0.10;;
28946;SDS011;16052;50.930;5.326;2023-03-01T14:30:44;0.10;;;0.10;;
28946;SDS011;16052;50.930;5.326;2023-03-01T14:33:18;0.10;;;0.10;;
28946;SDS011;16052;50.930;5.326;2023-03-01T14:35:58;0.10;;;0.10;;
28946;SDS011;16052;50.930;5.326;2023-03-01T14:38:34;0.10;;;0.10;;
28946;SDS011;16052;50.930;5.326;2023-03-01T14:41:06;0.10;;;0.10;;
28946;SDS011;16052;50.930;5.326;2023-03-01T14:43:32;0.10;;;0.10;;
28946;SDS011;16052;50.930;5.326;2023-03-01T14:45:59;0.10;;;0.10;;
28946;SDS011;16052;50.930;5.326;2023-03-01T14:48:28;0.10;;;0.10;;
28946;SDS011;16052;50.930;5.326;2023-03-01T14:50:58;0.10;;;0.10;;
28946;SDS011;16052;50.930;5.326;2023-03-01T14:53:25;0.10;;;0.10;;
28946;SDS011;16052;50.930;5.326;2023-03-01T14:55:55;0.00;;;0.00;;
28946;SDS011;16052;50.930;5.326;2023-03-01T14:58:32;0.10;;;0.10;;
28946;SDS011;16052;50.930;5.326;2023-03-01T15:01:03;0.10;;;0.10;;
28946;SDS011;16052;50.930;5.326;2023-03-01T15:03:35;0.10;;;0.10;;
28946;SDS011;16052;50.930;5.326;2023-03-01T15:06:03;0.10;;;0.10;;
28946;SDS011;16052;50.930;5.326;2023-03-01T15:08:31;0.10;;;0.10;;
28946;SDS011;16052;50.930;5.326;2023-03-01T15:13:50;0.10;;;0.10;;
28946;SDS011;16052;50.930;5.326;2023-03-01T15:18:52;0.10;;;0.10;;
28946;SDS011;16052;50.930;5.326;2023-03-01T15:21:21;0.10;;;0.10;;
28946;SDS011;16052;50.930;5.326;2023-03-01T15:23:56;0.10;;;0.10;;
28946;SDS011;16052;50.930;5.326;2023-03-01T15:26:45;0.10;;;0.10;;
28946;SDS011;16052;50.930;5.326;2023-03-01T15:29:30;0.10;;;0.10;;
28946;SDS011;16052;50.930;5.326;2023-03-01T15:32:03;0.10;;;0.10;;
28946;SDS011;16052;50.930;5.326;2023-03-01T15:44:37;0.10;;;0.10;;
28946;SDS011;16052;50.930;5.326;2023-03-01T15:47:23;0.10;;;0.10;;
28946;SDS011;16052;50.930;5.326;2023-03-01T15:49:56;0.10;;;0.10;;
28946;SDS011;16052;50.930;5.326;2023-03-01T15:52:25;0.10;;;0.10;;
28946;SDS011;16052;50.930;5.326;2023-03-01T15:54:55;0.10;;;0.10;;
28946;SDS011;16052;50.930;5.326;2023-03-01T15:57:23;0.00;;;0.00;;
28946;SDS011;16052;50.930;5.326;2023-03-01T15:59:48;0.10;;;0.10;;
28946;SDS011;16052;50.930;5.326;2023-03-01T16:02:14;0.10;;;0.10;;
28946;SDS011;16052;50.930;5.326;2023-03-01T16:04:40;0.10;;;0.10;;
28946;SDS011;16052;50.930;5.326;2023-03-01T16:07:06;0.10;;;0.10;;
28946;SDS011;16052;50.930;5.326;2023-03-01T16:09:35;0.10;;;0.10;;
28946;SDS011;16052;50.930;5.326;2023-03-01T16:12:01;0.10;;;0.10;;
28946;SDS011;16052;50.930;5.326;2023-03-01T16:14:27;0.10;;;0.10;;
28946;SDS011;16052;50.930;5.326;2023-03-01T16:16:52;0.10;;;0.10;;
28946;SDS011;16052;50.930;5.326;2023-03-01T16:19:18;0.10;;;0.10;;
28946;SDS011;16052;50.930;5.326;2023-03-01T16:21:44;0.03;;;0.03;;
28946;SDS011;16052;50.930;5.326;2023-03-01T16:24:12;0.10;;;0.10;;
28946;SDS011;16052;50.930;5.326;2023-03-01T16:26:38;0.10;;;0.10;;
28946;SDS011;16052;50.930;5.326;2023-03-01T16:29:04;0.10;;;0.10;;
28946;SDS011;16052;50.930;5.326;2023-03-01T16:31:30;0.10;;;0.10;;
28946;SDS011;16052;50.930;5.326;2023-03-01T16:33:56;0.10;;;0.10;;
28946;SDS011;16052;50.930;5.326;2023-03-01T16:36:24;0.10;;;0.10;;
28946;SDS011;16052;50.930;5.326;2023-03-01T16:38:53;0.10;;;0.10;;
28946;SDS011;16052;50.930;5.326;2023-03-01T16:41:21;0.10;;;0.10;;
28946;SDS011;16052;50.930;5.326;2023-03-01T16:43:47;0.10;;;0.10;;
28946;SDS011;16052;50.930;5.326;2023-03-01T16:46:16;0.10;;;0.10;;
28946;SDS011;16052;50.930;5.326;2023-03-01T16:48:46;0.10;;;0.10;;
28946;SDS011;16052;50.930;5.326;2023-03-01T16:51:13;0.10;;;0.10;;
28946;SDS011;16052;50.930;5.326;2023-03-01T16:53:38;0.10;;;0.10;;
28946;SDS011;16052;50.930;5.326;2023-03-01T16:56:06;0.10;;;0.10;;
28946;SDS011;16052;50.930;5.326;2023-03-01T16:58:33;0.10;;;0.10;;
28946;SDS011;16052;50.930;5.326;2023-03-01T17:01:19;0.10;;;0.10;;
28946;SDS011;16052;50.930;5.326;2023-03-01T17:03:48;0.10;;;0.10;;
28946;SDS011;16052;50.930;5.326;2023-03-01T17:06:16;0.10;;;0.10;;
28946;SDS011;16052;50.930;5.326;2023-03-01T17:08:45;0.10;;;0.10;;
28946;SDS011;16052;50.930;5.326;2023-03-01T17:11:12;0.10;;;0.10;;
28946;SDS011;16052;50.930;5.326;2023-03-01T17:16:06;0.10;;;0.10;;
28946;SDS011;16052;50.930;5.326;2023-03-01T17:18:34;0.10;;;0.10;;
28946;SDS011;16052;50.930;5.326;2023-03-01T17:20:59;0.10;;;0.10;;
28946;SDS011;16052;50.930;5.326;2023-03-01T17:23:26;0.10;;;0.10;;
28946;SDS011;16052;50.930;5.326;2023-03-01T17:25:53;0.10;;;0.10;;
28946;SDS011;16052;50.930;5.326;2023-03-01T17:28:20;0.10;;;0.10;;
28946;SDS011;16052;50.930;5.326;2023-03-01T17:30:47;0.15;;;0.15;;
28946;SDS011;16052;50.930;5.326;2023-03-01T17:33:13;0.10;;;0.10;;
28946;SDS011;16052;50.930;5.326;2023-03-01T17:35:40;0.10;;;0.10;;
28946;SDS011;16052;50.930;5.326;2023-03-01T17:38:05;0.10;;;0.10;;
28946;SDS011;16052;50.930;5.326;2023-03-01T17:40:32;0.10;;;0.10;;
28946;SDS011;16052;50.930;5.326;2023-03-01T17:43:00;0.10;;;0.10;;
28946;SDS011;16052;50.930;5.326;2023-03-01T17:45:26;0.10;;;0.10;;
28946;SDS011;16052;50.930;5.326;2023-03-01T17:47:52;0.10;;;0.10;;